TimeCEST,TemperatureF,Dew PointF,Humidity,Sea Level PressureIn,VisibilityMPH,Wind Direction,Wind SpeedMPH,Gust SpeedMPH,PrecipitationIn,Events,Conditions,WindDirDegrees,DateUTC
12:15 AM,62.6,59.0,88,30.09,6.2,ESE,1.2,-,N/A,,Partly Cloudy,110,2012-10-04 22:15:00
12:45 AM,62.6,57.2,82,30.09,6.2,ESE,1.2,-,N/A,,Partly Cloudy,110,2012-10-04 22:45:00
1:15 AM,60.8,57.2,88,30.09,6.2,ESE,2.3,-,N/A,,Partly Cloudy,110,2012-10-04 23:15:00
1:45 AM,60.8,59.0,94,30.09,6.2,ENE,1.2,-,N/A,,Partly Cloudy,60,2012-10-04 23:45:00
2:15 AM,60.8,57.2,88,30.09,6.2,East,1.2,-,N/A,,Partly Cloudy,90,2012-10-05 00:15:00
2:45 AM,60.8,57.2,88,30.09,6.2,East,1.2,-,N/A,,Partly Cloudy,100,2012-10-05 00:45:00
3:15 AM,59.0,55.4,88,30.09,-9999.0,North,2.3,-,N/A,,Clear,10,2012-10-05 01:15:00
3:45 AM,59.0,55.4,88,30.09,-9999.0,NNE,2.3,-,N/A,,Clear,20,2012-10-05 01:45:00
4:15 AM,59.0,55.4,88,30.09,-9999.0,NNE,2.3,-,N/A,,Clear,30,2012-10-05 02:15:00
4:45 AM,59.0,55.4,88,30.09,-9999.0,NE,1.2,-,N/A,,Clear,40,2012-10-05 02:45:00
5:15 AM,59.0,55.4,88,30.09,-9999.0,NE,1.2,-,N/A,,Clear,50,2012-10-05 03:15:00
5:45 AM,59.0,55.4,88,30.09,-9999.0,Calm,Calm,-,N/A,,Clear,0,2012-10-05 03:45:00
6:15 AM,59.0,55.4,88,30.09,5.0,NE,2.3,-,N/A,,Partly Cloudy,50,2012-10-05 04:15:00
6:45 AM,59.0,55.4,88,30.09,5.0,NE,2.3,-,N/A,,Partly Cloudy,40,2012-10-05 04:45:00
7:15 AM,59.0,57.2,94,30.09,4.3,NNE,2.3,-,N/A,,Partly Cloudy,30,2012-10-05 05:15:00
7:45 AM,57.2,57.2,100,30.09,4.3,NE,2.3,-,N/A,,Partly Cloudy,50,2012-10-05 05:45:00
8:15 AM,59.0,57.2,94,30.09,5.0,Calm,Calm,-,N/A,,Unknown,0,2012-10-05 06:15:00
8:45 AM,60.8,59.0,94,30.12,5.0,North,2.3,-,N/A,,Unknown,10,2012-10-05 06:45:00
9:15 AM,62.6,60.8,94,30.12,5.0,NE,4.6,-,N/A,,Unknown,40,2012-10-05 07:15:00
9:45 AM,64.4,62.6,94,30.12,5.6,NE,2.3,-,N/A,,Unknown,40,2012-10-05 07:45:00
10:15 AM,66.2,62.6,88,30.12,-9999.0,NNE,2.3,-,N/A,,Clear,20,2012-10-05 08:15:00
10:45 AM,68.0,64.4,88,30.12,-9999.0,NNE,3.5,-,N/A,,Clear,30,2012-10-05 08:45:00
11:15 AM,69.8,60.8,73,30.15,6.2,North,3.5,-,N/A,,Partly Cloudy,10,2012-10-05 09:15:00
11:45 AM,69.8,62.6,78,30.15,6.2,North,3.5,-,N/A,,Partly Cloudy,350,2012-10-05 09:45:00
12:15 PM,71.6,62.6,73,30.15,6.2,NNW,3.5,-,N/A,,Partly Cloudy,340,2012-10-05 10:15:00
12:45 PM,73.4,60.8,65,30.15,6.2,WNW,2.3,-,N/A,,Partly Cloudy,300,2012-10-05 10:45:00
1:15 PM,73.4,59.0,61,30.15,6.2,NW,3.5,-,N/A,,Partly Cloudy,320,2012-10-05 11:15:00
1:45 PM,75.2,59.0,57,30.12,6.2,West,3.5,-,N/A,,Partly Cloudy,280,2012-10-05 11:45:00
2:15 PM,75.2,57.2,53,30.12,6.2,NW,4.6,-,N/A,,Partly Cloudy,310,2012-10-05 12:15:00
3:15 PM,77.0,55.4,47,30.12,6.2,WNW,3.5,-,N/A,,Partly Cloudy,290,2012-10-05 13:15:00
3:45 PM,77.0,55.4,47,30.12,6.2,WNW,6.9,-,N/A,,Partly Cloudy,290,2012-10-05 13:45:00
4:15 PM,77.0,55.4,47,30.12,6.2,NNW,5.8,-,N/A,,Partly Cloudy,330,2012-10-05 14:15:00
4:45 PM,77.0,60.8,57,30.09,6.2,WNW,5.8,-,N/A,,Partly Cloudy,290,2012-10-05 14:45:00
5:15 PM,75.2,64.4,69,30.09,-9999.0,West,8.1,-,N/A,,Clear,280,2012-10-05 15:15:00
5:45 PM,75.2,64.4,69,30.12,6.2,West,5.8,-,N/A,,Partly Cloudy,260,2012-10-05 15:45:00
6:15 PM,73.4,66.2,78,30.12,6.2,WSW,4.6,-,N/A,,Partly Cloudy,250,2012-10-05 16:15:00
6:45 PM,69.8,64.4,83,30.12,6.2,WSW,4.6,-,N/A,,Partly Cloudy,250,2012-10-05 16:45:00
7:15 PM,68.0,62.6,83,30.12,6.2,SW,3.5,-,N/A,,Scattered Clouds,230,2012-10-05 17:15:00
7:45 PM,68.0,64.4,88,30.12,6.2,SW,2.3,-,N/A,,Partly Cloudy,220,2012-10-05 17:45:00
8:15 PM,66.2,62.6,88,30.12,6.2,South,3.5,-,N/A,,Partly Cloudy,180,2012-10-05 18:15:00
8:45 PM,66.2,62.6,88,30.12,6.2,SSE,2.3,-,N/A,,Partly Cloudy,160,2012-10-05 18:45:00
9:15 PM,66.2,62.6,88,30.12,6.2,South,1.2,-,N/A,,Partly Cloudy,180,2012-10-05 19:15:00
9:45 PM,64.4,62.6,94,30.12,6.2,Calm,Calm,-,N/A,,Partly Cloudy,0,2012-10-05 19:45:00
10:15 PM,64.4,60.8,88,30.12,6.2,ESE,2.3,-,N/A,,Partly Cloudy,110,2012-10-05 20:15:00
10:45 PM,64.4,60.8,88,30.12,-9999.0,SSE,2.3,-,N/A,,Clear,150,2012-10-05 20:45:00
11:15 PM,62.6,60.8,94,30.15,-9999.0,SSE,2.3,-,N/A,,Clear,160,2012-10-05 21:15:00
11:45 PM,60.8,59.0,94,30.15,-9999.0,SSE,3.5,-,N/A,,Clear,150,2012-10-05 21:45:00